WetterOnline ( https://www.wetteronline.de )

Wetter aktuell Waldkirch

Aktuelles Wetter: Freiburg/Flugplatz (236m)

6-stündlich | Neueste Meldungen
Ortszeit Temperatur Wetter
Sa, 18.05. 14:00 21.3° C wolkenlos
Sa, 18.05. 8:00 11.6° C wolkig
Sa, 18.05. 2:00 8.2° C wolkenlos
Fr, 17.05. 20:00 15.4° C wolkig
Fr, 17.05. 14:00 13.6° C leichter Regen
Fr, 17.05. 8:00 11.3° C leichter Regen
Fr, 17.05. 2:00 12.0° C Regen
Do, 16.05. 20:00 13.3° C leichter Regen
Ortszeit Temperatur Wetter
Sa, 18.05. 19:00 15.8° C wolkig
Sa, 18.05. 18:30 15.7° C leichter Regen
Sa, 18.05. 18:20 15.7° C leichter Regen
Sa, 18.05. 18:10 15.9° C leichter Regen
Sa, 18.05. 18:00 16.1° C Sprühregen
Sa, 18.05. 17:50 16.1° C Sprühregen
Sa, 18.05. 17:30 15.4° C bedeckt
Sa, 18.05. 17:00 14.6° C leichter Regen
Sa, 18.05. 16:30 17.3° C leichter Regen
Sa, 18.05. 16:00 21.2° C bewölkt
Ortszeit Relative Feuchte Sichtweite
Sa, 18.05. 14:00 46% 60 km
Sa, 18.05. 8:00 85% 40 km
Sa, 18.05. 2:00 97% 5.0 km
Fr, 17.05. 20:00 79% 50 km
Fr, 17.05. 14:00 89% 16 km
Fr, 17.05. 8:00 95% 10 km
Fr, 17.05. 2:00 97% 10 km
Do, 16.05. 20:00 89% 20 km
Ortszeit Relative Feuchte Sichtweite
Sa, 18.05. 19:00 79% 55 km
Sa, 18.05. 18:30 81% 50 km
Sa, 18.05. 18:20 81% -
Sa, 18.05. 18:10 81% -
Sa, 18.05. 18:00 82% 45 km
Sa, 18.05. 17:50 82% -
Sa, 18.05. 17:30 80% 40 km
Sa, 18.05. 17:00 84% 16 km
Sa, 18.05. 16:30 59% 30 km
Sa, 18.05. 16:00 46% 45 km
Ortszeit Niederschlagsmenge Niederschlagsart
Sa, 18.05. 14:00 0.0 l/m2 in 6 Std. -
Sa, 18.05. 8:00 0.0 l/m2 in 12 Std. -
Sa, 18.05. 2:00 0.0 l/m2 in 6 Std. -
Fr, 17.05. 20:00 8 l/m2 in 12 Std. Regen
Fr, 17.05. 14:00 8 l/m2 in 6 Std. Regen
Fr, 17.05. 8:00 38 l/m2 in 12 Std. Regen
Fr, 17.05. 2:00 22 l/m2 in 6 Std. Regen
Do, 16.05. 20:00 4 l/m2 in 12 Std. Regen
Ortszeit Niederschlagsmenge Niederschlagsart
Sa, 18.05. 19:00 0.2 l/m2 in 1 Std. Regen
Sa, 18.05. 18:30 0.1 l/m2 in 30 Min -
Sa, 18.05. 18:20 keine Meldung -
Sa, 18.05. 18:10 keine Meldung -
Sa, 18.05. 18:00 <0.05 l/m2 in 1 Std. Regen
Sa, 18.05. 17:50 keine Meldung -
Sa, 18.05. 17:30 <0.05 l/m2 in 30 Min Schneeregen
Sa, 18.05. 17:00 6.3 l/m2 in 1 Std. Regen, Niederschlag
Sa, 18.05. 16:30 <0.05 l/m2 in 30 Min -
Sa, 18.05. 16:00 0.0 l/m2 in 1 Std. -
Ortszeit Stärke Spitze Richtung
km/h Bft. km/h Grad Sektor
Sa, 18.05. 14:00 7 2 26 300° NW
Sa, 18.05. 8:00 4 1 7 350° N
Sa, 18.05. 2:00 0 0 11 - -
Fr, 17.05. 20:00 4 1 22 230° SW
Fr, 17.05. 14:00 11 2 40 210° SW
Fr, 17.05. 8:00 14 3 36 210° SW
Fr, 17.05. 2:00 14 3 25 230° SW
Do, 16.05. 20:00 9 2 26 190° S
Ortszeit Stärke Spitze Richtung
km/h Bft. km/h Grad Sektor
Sa, 18.05. 19:00 7 2 22 250° W
Sa, 18.05. 18:30 7 2 22 230° SW
Sa, 18.05. 18:20 7 2 - 230° SW
Sa, 18.05. 18:10 9 2 - 240° SW
Sa, 18.05. 18:00 6 1 17 230° SW
Sa, 18.05. 17:50 6 1 - 230° SW
Sa, 18.05. 17:30 6 1 17 50° NO
Sa, 18.05. 17:00 4 1 40 320° NW
Sa, 18.05. 16:30 25 4 40 300° NW
Sa, 18.05. 16:00 11 2 22 270° W
Ortszeit Untergrenze Bedeckung Gattung
total tief tief mittel hoch
Sa, 18.05. 14:00 - 0/8 0/8 - - -
Sa, 18.05. 8:00 2400 m 5/8 5/8 - - -
Sa, 18.05. 2:00 - 0/8 0/8 - - -
Fr, 17.05. 20:00 2100 m 8/8 1/8 - - -
Fr, 17.05. 14:00 1110 m 8/8 8/8 - - -
Fr, 17.05. 8:00 840 m 7/8 7/8 - - -
Fr, 17.05. 2:00 150 m 8/8 8/8 - - -
Do, 16.05. 20:00 690 m 8/8 8/8 - - -
Ortszeit Bedeckungsgrad in Achtel und Wolkenuntergrenze
Sa, 18.05. 19:00 1(1470m) 3(2400m) 8(3600m)
Sa, 18.05. 18:30 5(1500m) 8(3600m) 8(4500m)
Sa, 18.05. 18:20 5(1500m) 8(3600m) 8(4500m)
Sa, 18.05. 18:10 8
Sa, 18.05. 18:00 5(1500m) 7(2100m) 8(5100m)
Sa, 18.05. 17:50 5(1500m) 7(2100m) 8(5100m)
Sa, 18.05. 17:30 8(1500m) 8(3000m)
Sa, 18.05. 17:00 1(60m) 6(1470m) 8(1800m)
Sa, 18.05. 16:30 5(1500m) 7(2100m) 8(2400m)
Sa, 18.05. 16:00 5(1800m) 7(3000m) 8(6300m)
Ortszeit Luftdruck NN (hPa) Tendenz (hPa in 3 Std.)
Sa, 18.05. 14:00 1011 - 0,9
Sa, 18.05. 8:00 1013 + 0,9
Sa, 18.05. 2:00 1013 + 0,3
Fr, 17.05. 20:00 1010 + 0,2
Fr, 17.05. 14:00 1010 + 1,1
Fr, 17.05. 8:00 1008 + 1,4
Fr, 17.05. 2:00 1007 - 0,4
Do, 16.05. 20:00 1006 + 0,3
Ortszeit Luftdruck NN (hPa) Tendenz (hPa in 3 Std.)
Sa, 18.05. 19:00 1012 + 1,7
Sa, 18.05. 18:30 1012 + 1,4
Sa, 18.05. 18:20 1012 keine Meldung
Sa, 18.05. 18:10 1012 keine Meldung
Sa, 18.05. 18:00 1012 + 0,9
Sa, 18.05. 17:50 1012 keine Meldung
Sa, 18.05. 17:30 1011 + 0,3
Sa, 18.05. 17:00 1011 0,0
Sa, 18.05. 16:30 1011 - 0,9
Sa, 18.05. 16:00 1010 - 1,4
Ortszeit Schneehöhe (cm)
Sa, 18.05. 14:00 0
Sa, 18.05. 8:00 0
Sa, 18.05. 2:00 0
Fr, 17.05. 20:00 0
Fr, 17.05. 14:00 0
Fr, 17.05. 8:00 0
Fr, 17.05. 2:00 0
Do, 16.05. 20:00 0
Ortszeit Schneehöhe (cm)
Sa, 18.05. 19:00 0
Sa, 18.05. 18:30 0
Sa, 18.05. 18:20 0
Sa, 18.05. 18:10 -
Sa, 18.05. 18:00 0
Sa, 18.05. 17:50 0
Sa, 18.05. 17:30 0
Sa, 18.05. 17:00 0
Sa, 18.05. 16:30 0
Sa, 18.05. 16:00 0
Link zu dieser Seite / Seite empfehlen

Das Wetter in ...